Time;durP1;ratioP1;P1;durP2;ratioP2;P2;SDS_P1;SDS_P2;PMS_P1;PMS_P2;Temp;Humidity;BMP_temperature;BMP_pressure;BME280_temperature;BME280_humidity;BME280_pressure;Samples;Min_cycle;Max_cycle;Signal;HPM_P1;HPM_P2
2022/01/28 00:00:33;;;;;;;1.65;0.40;;;19.70;52.60;;;;;;5052899;28;20032;-68
2022/01/28 00:03:09;;;;;;;0.40;0.40;;;19.70;52.60;;;;;;5037628;28;20033;-68
2022/01/28 00:05:36;;;;;;;0.77;0.55;;;19.70;52.70;;;;;;5036916;28;20078;-68
2022/01/28 00:08:02;;;;;;;0.35;0.30;;;19.70;52.60;;;;;;5035943;28;20446;-67
2022/01/28 00:10:28;;;;;;;0.55;0.30;;;19.70;52.60;;;;;;5019447;28;20511;-68
2022/01/28 00:15:34;;;;;;;0.30;0.30;;;19.80;52.70;;;;;;5035891;28;20033;-68
2022/01/28 00:39:28;;;;;;;0.30;0.20;;;19.70;52.80;;;;;;5073167;28;20025;-68
2022/01/28 00:41:53;;;;;;;0.43;0.40;;;19.80;52.90;;;;;;5072943;28;20028;-68
2022/01/28 00:44:19;;;;;;;0.30;0.20;;;19.80;52.90;;;;;;5055879;28;20040;-68
2022/01/28 00:46:45;;;;;;;0.20;0.20;;;19.80;52.90;;;;;;5073057;28;20031;-68
2022/01/28 00:49:10;;;;;;;0.30;0.30;;;19.80;52.80;;;;;;5073799;28;20037;-68
2022/01/28 00:51:36;;;;;;;0.40;0.40;;;19.80;52.90;;;;;;5073804;28;20025;-68
2022/01/28 00:54:01;;;;;;;0.47;0.47;;;19.80;52.90;;;;;;5073780;28;20029;-68
2022/01/28 00:56:27;;;;;;;0.10;0.10;;;19.80;52.90;;;;;;5055951;28;20032;-68
2022/01/28 00:58:53;;;;;;;0.80;0.35;;;19.90;52.90;;;;;;5072561;28;20442;-68
2022/01/28 01:01:18;;;;;;;0.70;0.30;;;19.80;52.90;;;;;;5072254;28;20028;-68
2022/01/28 01:03:44;;;;;;;0.30;0.30;;;19.80;52.90;;;;;;5071946;28;20060;-68
2022/01/28 01:06:09;;;;;;;0.20;0.20;;;19.80;52.90;;;;;;5073546;28;20142;-68
2022/01/28 01:08:36;;;;;;;0.30;0.30;;;19.90;52.90;;;;;;5072487;28;20028;-68
2022/01/28 01:11:02;;;;;;;1.17;0.32;;;19.80;52.90;;;;;;5076983;28;20599;-68
2022/01/28 01:13:28;;;;;;;0.22;0.20;;;19.90;53.00;;;;;;5092428;28;20492;-68
2022/01/28 01:15:57;;;;;;;1.45;0.22;;;19.90;53.00;;;;;;5092507;28;20028;-68
2022/01/28 01:18:31;;;;;;;0.22;0.22;;;19.90;52.90;;;;;;5093351;28;20505;-68
2022/01/28 01:21:10;;;;;;;1.88;0.40;;;19.90;52.90;;;;;;5093602;28;20095;-68
2022/01/28 01:23:39;;;;;;;0.30;0.30;;;19.90;53.00;;;;;;5092615;28;20023;-68
2022/01/28 01:26:11;;;;;;;0.75;0.22;;;19.90;53.00;;;;;;5091564;28;20031;-68
2022/01/28 01:28:39;;;;;;;0.90;0.30;;;19.90;52.90;;;;;;5093555;28;20040;-68
2022/01/28 01:31:06;;;;;;;1.05;0.30;;;19.90;53.00;;;;;;5092274;28;20035;-68
2022/01/28 01:33:37;;;;;;;0.20;0.20;;;19.90;53.00;;;;;;5091835;28;20107;-68
2022/01/28 01:36:03;;;;;;;0.57;0.30;;;19.90;53.00;;;;;;5092135;28;20020;-68
2022/01/28 01:38:33;;;;;;;0.20;0.20;;;19.90;53.00;;;;;;5091918;28;20046;-68
2022/01/28 01:41:01;;;;;;;0.30;0.30;;;19.90;53.00;;;;;;5091926;28;20482;-68
2022/01/28 01:53:47;;;;;;;0.10;0.10;;;19.90;53.10;;;;;;5092053;28;20080;-68
2022/01/28 01:56:12;;;;;;;0.57;0.30;;;19.90;53.20;;;;;;5092858;28;20494;-68
2022/01/28 01:58:40;;;;;;;0.30;0.30;;;19.90;53.10;;;;;;5091807;28;20533;-68
2022/01/28 02:01:05;;;;;;;0.38;0.38;;;19.90;53.10;;;;;;5091613;28;20016;-68
2022/01/28 02:03:31;;;;;;;0.30;0.15;;;19.90;53.10;;;;;;5072381;28;20104;-68
2022/01/28 02:05:58;;;;;;;0.40;0.35;;;19.90;53.20;;;;;;5071498;28;20449;-68
2022/01/28 02:08:30;;;;;;;0.30;0.30;;;19.90;53.20;;;;;;5054729;28;20372;-68
2022/01/28 02:10:57;;;;;;;0.52;0.52;;;19.90;53.20;;;;;;5076166;28;20020;-68
2022/01/28 02:13:27;;;;;;;0.73;0.30;;;19.90;53.20;;;;;;5091559;28;20024;-68
2022/01/28 02:15:53;;;;;;;0.32;0.20;;;19.90;53.20;;;;;;5074877;28;20028;-67
2022/01/28 02:18:20;;;;;;;0.80;0.30;;;19.90;53.20;;;;;;5091139;28;20479;-67
2022/01/28 02:20:49;;;;;;;0.75;0.30;;;19.90;53.20;;;;;;5091375;28;20020;-68
2022/01/28 02:23:15;;;;;;;0.30;0.30;;;20.00;53.20;;;;;;5091468;28;20024;-68
2022/01/28 02:25:41;;;;;;;0.40;0.40;;;19.90;53.20;;;;;;5091341;28;20557;-68
2022/01/28 02:28:10;;;;;;;0.82;0.30;;;19.90;53.30;;;;;;5092329;28;20491;-68
2022/01/28 02:30:36;;;;;;;0.13;0.13;;;19.90;54.20;;;;;;5091180;28;20441;-68
2022/01/28 02:33:10;;;;;;;0.30;0.30;;;19.90;53.20;;;;;;5092341;28;20024;-68
2022/01/28 02:35:36;;;;;;;0.20;0.20;;;20.00;53.30;;;;;;5091785;28;20108;-68
2022/01/28 02:38:02;;;;;;;0.22;0.20;;;19.90;53.20;;;;;;5098072;28;20470;-68
2022/01/28 02:40:28;;;;;;;0.77;0.30;;;19.90;53.30;;;;;;5098945;28;20127;-68
2022/01/28 02:43:13;;;;;;;3.65;0.32;;;19.90;53.30;;;;;;5099007;28;20019;-68
2022/01/28 02:45:40;;;;;;;0.60;0.35;;;20.00;53.30;;;;;;5098566;28;20016;-68
2022/01/28 02:48:14;;;;;;;0.60;0.30;;;19.90;53.30;;;;;;5098042;28;20056;-68
2022/01/28 02:50:47;;;;;;;0.20;0.20;;;19.90;53.30;;;;;;5098067;28;20517;-68
2022/01/28 02:53:22;;;;;;;0.32;0.20;;;20.00;53.40;;;;;;5097866;28;20028;-68
2022/01/28 02:55:47;;;;;;;0.32;0.25;;;19.90;53.40;;;;;;5098882;28;20024;-68
2022/01/28 02:58:19;;;;;;;0.30;0.30;;;20.00;53.40;;;;;;5097625;28;20028;-68
2022/01/28 03:00:47;;;;;;;0.68;0.30;;;20.00;54.40;;;;;;5098769;28;20095;-68
2022/01/28 03:03:13;;;;;;;0.20;0.20;;;20.00;53.40;;;;;;5081362;28;20437;-68
2022/01/28 03:05:39;;;;;;;0.30;0.15;;;20.00;53.40;;;;;;5060921;28;20021;-68
2022/01/28 03:08:05;;;;;;;0.20;0.20;;;20.00;53.40;;;;;;5077623;28;20024;-68
2022/01/28 03:15:33;;;;;;;0.47;0.40;;;20.00;53.40;;;;;;5098469;28;20024;-68
2022/01/28 03:18:15;;;;;;;0.30;0.30;;;20.00;53.50;;;;;;5097673;28;20023;-67
2022/01/28 03:20:55;;;;;;;0.30;0.30;;;20.00;53.50;;;;;;5098743;28;20016;-68
2022/01/28 03:23:20;;;;;;;0.28;0.20;;;20.00;53.50;;;;;;5097642;28;20020;-68
2022/01/28 03:25:47;;;;;;;0.30;0.20;;;20.00;53.50;;;;;;5098633;28;20024;-68
2022/01/28 03:28:15;;;;;;;0.30;0.20;;;20.00;53.50;;;;;;5098523;28;20540;-68
2022/01/28 03:30:40;;;;;;;0.38;0.30;;;20.00;53.50;;;;;;5097236;28;20016;-68
2022/01/28 03:33:06;;;;;;;1.25;0.30;;;20.00;53.50;;;;;;5098704;28;20038;-67
2022/01/28 03:35:33;;;;;;;0.85;0.20;;;20.00;53.50;;;;;;5098654;28;20035;-68
2022/01/28 03:38:00;;;;;;;0.13;0.13;;;20.00;53.50;;;;;;5097412;28;20047;-68
2022/01/28 03:40:33;;;;;;;0.25;0.22;;;20.00;53.50;;;;;;5097280;28;20490;-67
2022/01/28 03:42:59;;;;;;;0.17;0.17;;;20.00;53.50;;;;;;5098540;28;20024;-68
2022/01/28 03:45:24;;;;;;;0.43;0.30;;;20.00;53.50;;;;;;5097055;28;20051;-68
2022/01/28 03:47:50;;;;;;;1.45;0.30;;;20.00;53.50;;;;;;5095240;28;20036;-68
2022/01/28 03:50:15;;;;;;;0.20;0.20;;;20.00;53.50;;;;;;5095299;28;20024;-68
2022/01/28 03:52:41;;;;;;;0.88;0.13;;;20.00;53.60;;;;;;5094007;28;20031;-68
2022/01/28 03:55:07;;;;;;;0.25;0.20;;;20.00;53.60;;;;;;5077055;28;20058;-68
2022/01/28 03:57:33;;;;;;;0.20;0.20;;;20.00;53.60;;;;;;5094894;28;20012;-68
2022/01/28 03:59:58;;;;;;;0.25;0.25;;;20.00;53.60;;;;;;5095531;28;20069;-68
2022/01/28 04:02:28;;;;;;;0.22;0.22;;;20.00;53.60;;;;;;5083149;28;20037;-68
2022/01/28 04:12:51;;;;;;;0.20;0.20;;;19.90;53.60;;;;;;5094301;28;20448;-68
2022/01/28 04:18:08;;;;;;;0.20;0.20;;;19.90;53.60;;;;;;5039311;28;20045;-68
2022/01/28 04:20:34;;;;;;;0.30;0.30;;;20.00;53.70;;;;;;5035583;28;20037;-68
2022/01/28 04:23:00;;;;;;;0.10;0.10;;;20.00;53.70;;;;;;5052306;28;20080;-68
2022/01/28 04:25:25;;;;;;;0.50;0.25;;;20.00;53.70;;;;;;5052324;28;20094;-68
2022/01/28 04:27:51;;;;;;;0.20;0.20;;;20.00;53.70;;;;;;5035210;28;20424;-68
2022/01/28 04:30:16;;;;;;;0.17;0.17;;;19.90;53.70;;;;;;5035439;28;20462;-68
2022/01/28 04:32:42;;;;;;;0.30;0.30;;;20.00;53.70;;;;;;5035644;28;20476;-67
2022/01/28 04:35:08;;;;;;;0.13;0.13;;;19.90;53.70;;;;;;5051990;28;20045;-68
2022/01/28 04:40:22;;;;;;;0.25;0.20;;;19.90;53.70;;;;;;5051967;28;20074;-68
2022/01/28 04:43:16;;;;;;;0.30;0.30;;;19.90;53.70;;;;;;5035754;28;20060;-68
2022/01/28 04:45:43;;;;;;;0.25;0.20;;;19.90;53.80;;;;;;5051147;28;20136;-68
2022/01/28 04:48:29;;;;;;;0.38;0.28;;;19.90;53.70;;;;;;5036644;28;20041;-68
2022/01/28 04:51:12;;;;;;;0.20;0.20;;;19.90;53.80;;;;;;5051928;28;20029;-68
2022/01/28 04:53:52;;;;;;;0.10;0.10;;;19.90;53.80;;;;;;5051550;28;20053;-68
2022/01/28 05:27:39;;;;;;;0.10;0.10;;;19.90;53.90;;;;;;5050953;28;20435;-68
2022/01/28 05:30:06;;;;;;;0.40;0.10;;;19.90;54.00;;;;;;5050836;28;20056;-68
2022/01/28 05:32:32;;;;;;;0.40;0.20;;;19.90;54.00;;;;;;5034325;28;20037;-68
2022/01/28 05:34:57;;;;;;;0.10;0.10;;;19.90;54.00;;;;;;5034454;28;20059;-68
2022/01/28 05:37:23;;;;;;;0.13;0.10;;;19.90;54.00;;;;;;5050948;28;20031;-67
2022/01/28 05:39:49;;;;;;;0.13;0.13;;;19.90;54.00;;;;;;5034085;28;20163;-68
2022/01/28 05:42:14;;;;;;;0.20;0.20;;;19.90;54.00;;;;;;5050952;28;20025;-67
2022/01/28 05:44:40;;;;;;;0.60;0.20;;;19.90;54.00;;;;;;5050794;28;20037;-68
2022/01/28 05:47:06;;;;;;;0.20;0.20;;;19.90;54.00;;;;;;5050740;28;20040;-67
2022/01/28 05:49:31;;;;;;;0.32;0.20;;;19.90;54.00;;;;;;5050810;28;20024;-68
2022/01/28 05:51:57;;;;;;;0.10;0.10;;;19.90;54.00;;;;;;5034016;28;20116;-68
2022/01/28 05:54:23;;;;;;;0.35;0.20;;;19.90;54.00;;;;;;5049939;28;20067;-68
2022/01/28 05:56:48;;;;;;;0.35;0.10;;;19.90;54.00;;;;;;5050500;28;20029;-67
2022/01/28 05:59:14;;;;;;;0.20;0.20;;;19.90;54.00;;;;;;5050648;28;20057;-68
2022/01/28 06:01:39;;;;;;;0.38;0.20;;;19.90;54.00;;;;;;5029210;28;20075;-67
2022/01/28 06:04:05;;;;;;;0.10;0.10;;;19.90;54.00;;;;;;5045812;28;20055;-68
2022/01/28 06:06:32;;;;;;;0.30;0.10;;;19.90;54.00;;;;;;5088117;28;20027;-67
2022/01/28 06:08:58;;;;;;;0.10;0.10;;;19.90;54.00;;;;;;5072395;28;20024;-67
2022/01/28 06:11:24;;;;;;;0.25;0.20;;;19.90;54.00;;;;;;5091140;28;20433;-68
2022/01/28 06:13:50;;;;;;;0.30;0.20;;;19.90;54.00;;;;;;5091419;28;20028;-68
2022/01/28 06:16:16;;;;;;;0.20;0.20;;;19.90;54.10;;;;;;5074297;28;20402;-67
2022/01/28 06:18:42;;;;;;;0.85;0.20;;;19.90;54.00;;;;;;5091370;28;20024;-68
2022/01/28 06:21:07;;;;;;;0.10;0.10;;;19.90;54.10;;;;;;5074500;28;20027;-68
2022/01/28 06:23:33;;;;;;;0.10;0.10;;;19.90;54.10;;;;;;5091052;28;20115;-68
2022/01/28 06:25:59;;;;;;;0.52;0.20;;;19.90;54.10;;;;;;5092568;28;20035;-68
2022/01/28 06:28:25;;;;;;;0.10;0.10;;;19.90;54.10;;;;;;5091154;28;20052;-68
2022/01/28 06:30:50;;;;;;;0.10;0.10;;;19.90;54.10;;;;;;5091163;28;20032;-68
2022/01/28 06:33:16;;;;;;;0.10;0.10;;;19.90;54.10;;;;;;5091442;28;20035;-68
2022/01/28 06:35:42;;;;;;;0.20;0.20;;;19.90;54.10;;;;;;5086952;28;20039;-68
2022/01/28 06:38:08;;;;;;;0.57;0.20;;;19.90;54.20;;;;;;5089542;28;20466;-68
2022/01/28 06:40:33;;;;;;;0.10;0.10;;;19.90;54.10;;;;;;5091006;28;20023;-68
2022/01/28 06:42:59;;;;;;;0.30;0.10;;;19.90;54.10;;;;;;5088274;28;20027;-68
2022/01/28 06:45:25;;;;;;;0.20;0.10;;;19.90;54.10;;;;;;5089505;28;20508;-67
2022/01/28 06:47:50;;;;;;;0.05;0.05;;;20.00;55.20;;;;;;5087858;28;20032;-69
2022/01/28 06:50:16;;;;;;;0.20;0.20;;;19.90;54.10;;;;;;5089634;28;20031;-66
2022/01/28 06:52:42;;;;;;;0.10;0.10;;;19.90;53.70;;;;;;5090685;28;20082;-66
2022/01/28 06:55:09;;;;;;;0.10;0.10;;;19.80;53.40;;;;;;5087758;28;20020;-66
2022/01/28 06:57:35;;;;;;;0.20;0.20;;;19.70;53.30;;;;;;5085972;28;20020;-67
2022/01/28 07:00:00;;;;;;;0.28;0.10;;;19.70;53.40;;;;;;5086290;28;20378;-67
2022/01/28 07:02:26;;;;;;;0.10;0.10;;;19.60;53.30;;;;;;5090015;28;20028;-67
2022/01/28 07:04:51;;;;;;;0.10;0.10;;;19.60;53.40;;;;;;5088832;28;20130;-67
2022/01/28 07:07:19;;;;;;;0.10;0.10;;;19.60;53.30;;;;;;5088948;28;20059;-66
2022/01/28 07:09:48;;;;;;;0.57;0.10;;;19.50;53.30;;;;;;5089297;28;20016;-66
2022/01/28 07:12:14;;;;;;;0.17;0.17;;;19.50;53.30;;;;;;5090507;28;20051;-67
2022/01/28 07:14:39;;;;;;;1.40;0.20;;;19.50;53.30;;;;;;5089953;28;20016;-66
2022/01/28 07:17:05;;;;;;;0.10;0.10;;;19.50;53.30;;;;;;5090504;28;20020;-67
2022/01/28 07:19:30;;;;;;;0.10;0.10;;;19.50;53.30;;;;;;5089012;28;20023;-66
2022/01/28 07:21:56;;;;;;;0.10;0.10;;;19.40;53.20;;;;;;5089013;28;20073;-66
2022/01/28 07:24:22;;;;;;;0.10;0.10;;;19.40;53.20;;;;;;5092226;28;20093;-66
2022/01/28 07:26:47;;;;;;;0.10;0.10;;;19.40;53.20;;;;;;5093450;28;20020;-66
2022/01/28 07:29:13;;;;;;;0.90;0.10;;;19.30;53.20;;;;;;5094068;28;20047;-66
2022/01/28 07:31:40;;;;;;;0.10;0.10;;;19.30;53.10;;;;;;5093999;28;20074;-67
2022/01/28 07:34:06;;;;;;;0.25;0.15;;;19.40;53.10;;;;;;5093234;28;20023;-66
2022/01/28 07:36:36;;;;;;;0.17;0.10;;;19.30;53.10;;;;;;5076203;28;20024;-66
2022/01/28 07:39:02;;;;;;;0.57;0.10;;;19.30;53.10;;;;;;5094369;28;20496;-67
2022/01/28 07:41:28;;;;;;;2.67;0.60;;;19.30;53.10;;;;;;5093918;28;20031;-67
2022/01/28 07:43:54;;;;;;;2.47;0.70;;;19.30;53.00;;;;;;5094045;28;20020;-67
2022/01/28 07:46:19;;;;;;;4.78;0.90;;;19.30;53.10;;;;;;5095054;28;20024;-66
2022/01/28 07:48:45;;;;;;;5.88;1.10;;;19.30;53.00;;;;;;5094244;28;20024;-67
2022/01/28 07:51:11;;;;;;;5.25;0.88;;;19.30;53.10;;;;;;5095041;28;20107;-66
2022/01/28 07:53:36;;;;;;;4.97;1.00;;;19.30;53.10;;;;;;5093945;28;20023;-66
2022/01/28 07:56:02;;;;;;;4.20;1.20;;;19.30;53.20;;;;;;5093844;28;20054;-66
2022/01/28 07:58:28;;;;;;;9.70;1.60;;;19.30;53.10;;;;;;5071975;28;20397;-66
2022/01/28 08:00:53;;;;;;;5.45;1.33;;;19.30;53.20;;;;;;5085974;28;20031;-67
2022/01/28 08:03:19;;;;;;;4.50;1.20;;;19.20;53.10;;;;;;5089311;28;20368;-67
2022/01/28 08:05:44;;;;;;;4.28;1.30;;;19.20;53.10;;;;;;5094669;28;20107;-67
2022/01/28 08:08:12;;;;;;;6.45;1.13;;;19.20;53.10;;;;;;5077466;28;20067;-67
2022/01/28 08:10:38;;;;;;;5.85;1.67;;;19.20;53.10;;;;;;5074821;28;20112;-67
2022/01/28 08:13:05;;;;;;;5.20;1.10;;;19.20;53.10;;;;;;5074678;28;20451;-67
2022/01/28 08:15:31;;;;;;;7.93;1.88;;;19.20;53.10;;;;;;5080918;28;20413;-67
2022/01/28 08:17:56;;;;;;;6.68;1.58;;;19.20;53.10;;;;;;5095140;28;20069;-67
2022/01/28 08:20:22;;;;;;;5.35;1.20;;;19.20;53.10;;;;;;5094527;28;20028;-67
2022/01/28 08:22:56;;;;;;;4.75;1.20;;;19.20;53.10;;;;;;5093605;28;20063;-66
2022/01/28 08:25:22;;;;;;;4.40;1.33;;;19.20;53.00;;;;;;5094867;28;20024;-67
2022/01/28 08:27:48;;;;;;;8.52;1.98;;;19.20;53.10;;;;;;5093123;28;20099;-67
2022/01/28 08:30:16;;;;;;;11.23;1.63;;;19.20;53.10;;;;;;5093384;28;20043;-66
2022/01/28 08:32:42;;;;;;;4.25;1.50;;;19.20;53.10;;;;;;5084738;28;20024;-67
2022/01/28 08:35:08;;;;;;;3.75;1.17;;;19.20;53.10;;;;;;5072363;28;20029;-66
2022/01/28 08:37:33;;;;;;;4.22;1.40;;;19.20;53.10;;;;;;5056319;28;20069;-66
2022/01/28 08:40:00;;;;;;;7.75;1.35;;;19.20;53.00;;;;;;5074361;28;20024;-67
2022/01/28 08:42:26;;;;;;;5.03;1.10;;;19.10;53.00;;;;;;5073049;28;20536;-66
2022/01/28 08:44:52;;;;;;;4.25;1.02;;;19.10;53.10;;;;;;5073981;28;20030;-66
2022/01/28 08:47:17;;;;;;;4.43;1.10;;;19.10;53.00;;;;;;5073046;28;20028;-66
2022/01/28 08:49:43;;;;;;;4.18;1.10;;;19.10;53.00;;;;;;5073659;28;20406;-67
2022/01/28 08:52:08;;;;;;;8.00;1.80;;;19.10;53.00;;;;;;5073971;28;20390;-66
2022/01/28 08:54:34;;;;;;;4.97;1.38;;;19.10;53.00;;;;;;5073856;28;20028;-67
2022/01/28 08:57:00;;;;;;;3.60;1.05;;;19.10;53.00;;;;;;5072407;28;20024;-66
2022/01/28 08:59:25;;;;;;;7.32;1.00;;;19.10;53.00;;;;;;5073699;28;20021;-66
2022/01/28 09:01:51;;;;;;;2.45;1.08;;;19.10;53.00;;;;;;5073724;28;20024;-66
2022/01/28 09:04:16;;;;;;;3.00;0.95;;;19.10;53.00;;;;;;5072330;28;20479;-67
2022/01/28 09:06:42;;;;;;;5.20;1.20;;;19.10;53.00;;;;;;5080897;28;20026;-66
2022/01/28 09:09:07;;;;;;;5.47;1.17;;;19.10;53.00;;;;;;5093758;28;20028;-67
2022/01/28 09:11:46;;;;;;;8.13;1.48;;;19.10;53.00;;;;;;5092676;28;20023;-66
2022/01/28 09:14:13;;;;;;;3.70;1.23;;;19.10;53.00;;;;;;5093772;28;20056;-66
2022/01/28 09:16:40;;;;;;;4.90;1.33;;;19.10;53.00;;;;;;5092214;28;20052;-67
2022/01/28 09:19:06;;;;;;;3.97;1.10;;;19.10;53.00;;;;;;5092356;28;20539;-66
2022/01/28 09:21:32;;;;;;;5.82;1.13;;;19.10;53.10;;;;;;5093497;28;20028;-66
2022/01/28 09:23:57;;;;;;;2.55;0.93;;;19.10;53.10;;;;;;5092219;28;20394;-67
2022/01/28 09:26:23;;;;;;;4.95;1.10;;;19.10;53.00;;;;;;5093544;28;20023;-66
2022/01/28 09:28:49;;;;;;;4.18;1.10;;;19.10;53.10;;;;;;5093202;28;20052;-66
2022/01/28 09:31:14;;;;;;;3.35;1.38;;;19.10;53.10;;;;;;5092002;28;20078;-67
2022/01/28 09:33:40;;;;;;;4.32;0.93;;;19.10;53.10;;;;;;5093361;28;20046;-67
2022/01/28 09:36:06;;;;;;;2.03;0.88;;;19.10;53.10;;;;;;5091869;28;20013;-67
2022/01/28 09:38:32;;;;;;;2.85;0.90;;;19.10;53.10;;;;;;5092048;28;20032;-66
2022/01/28 09:41:00;;;;;;;3.13;0.80;;;19.10;53.00;;;;;;5091944;28;20027;-66
2022/01/28 09:43:26;;;;;;;2.95;0.90;;;19.00;53.00;;;;;;5092172;28;20025;-66
2022/01/28 09:45:52;;;;;;;3.65;1.10;;;19.10;53.00;;;;;;5090885;28;20031;-66
2022/01/28 09:48:18;;;;;;;3.60;1.00;;;19.00;53.00;;;;;;5091891;28;20028;-66
2022/01/28 09:50:46;;;;;;;2.22;0.80;;;19.00;53.00;;;;;;5093337;28;20398;-67
2022/01/28 09:53:12;;;;;;;3.03;0.82;;;19.10;53.10;;;;;;5092914;28;20107;-66
2022/01/28 09:55:38;;;;;;;5.35;1.10;;;19.00;53.10;;;;;;5092786;28;20023;-67
2022/01/28 09:58:03;;;;;;;4.15;1.08;;;19.00;53.00;;;;;;5090485;28;20150;-67
2022/01/28 10:00:30;;;;;;;2.92;1.08;;;19.00;53.00;;;;;;5071001;28;20056;-66
2022/01/28 10:03:01;;;;;;;2.85;0.90;;;19.00;53.00;;;;;;5072706;28;20016;-67
2022/01/28 10:05:30;;;;;;;1.80;0.68;;;19.10;53.10;;;;;;5071465;28;20020;-66
2022/01/28 10:08:05;;;;;;;0.88;0.70;;;19.00;53.10;;;;;;5089160;28;20077;-66
2022/01/28 10:10:41;;;;;;;2.35;0.77;;;19.10;53.10;;;;;;5092623;28;20574;-67
2022/01/28 10:13:13;;;;;;;5.18;0.95;;;19.10;53.00;;;;;;5092603;28;20414;-67
2022/01/28 10:15:58;;;;;;;4.07;1.00;;;19.00;53.10;;;;;;5091214;28;20465;-66
2022/01/28 10:18:43;;;;;;;2.05;0.65;;;19.10;53.10;;;;;;5092805;28;20016;-66
2022/01/28 10:21:16;;;;;;;1.10;0.90;;;19.00;53.00;;;;;;5091261;28;20024;-67
2022/01/28 10:23:43;;;;;;;2.55;0.63;;;19.00;53.10;;;;;;5091411;28;20016;-67
2022/01/28 10:26:08;;;;;;;2.92;0.75;;;19.00;53.10;;;;;;5091253;28;20062;-67
2022/01/28 10:28:35;;;;;;;1.70;0.88;;;19.00;54.10;;;;;;5091178;28;20072;-66
2022/01/28 10:31:03;;;;;;;1.08;0.75;;;19.00;53.10;;;;;;5092145;28;20034;-67
2022/01/28 10:33:29;;;;;;;2.00;0.70;;;19.00;53.10;;;;;;5091418;28;20012;-67
2022/01/28 10:35:59;;;;;;;3.90;0.70;;;19.00;53.10;;;;;;5091237;28;20032;-67
2022/01/28 10:38:38;;;;;;;3.15;0.70;;;19.00;53.10;;;;;;5091316;28;20494;-67
2022/01/28 10:41:18;;;;;;;2.95;0.82;;;19.00;53.00;;;;;;5091090;28;20023;-67
2022/01/28 10:43:46;;;;;;;1.90;0.80;;;19.00;53.00;;;;;;5091002;28;20016;-67
2022/01/28 10:46:13;;;;;;;1.90;0.70;;;19.00;53.10;;;;;;5092107;28;20074;-67
2022/01/28 10:48:58;;;;;;;1.35;0.70;;;19.00;53.10;;;;;;5091119;28;20020;-67
2022/01/28 10:51:44;;;;;;;1.45;0.75;;;19.00;53.00;;;;;;5091335;28;20020;-67
2022/01/28 10:54:10;;;;;;;1.70;0.60;;;19.00;53.00;;;;;;5092260;28;20502;-67
2022/01/28 10:56:55;;;;;;;2.70;0.57;;;19.00;53.10;;;;;;5091277;28;20021;-67
2022/01/28 10:59:25;;;;;;;1.00;0.70;;;19.00;53.00;;;;;;5083907;28;20024;-66
2022/01/28 11:01:51;;;;;;;1.77;0.80;;;19.00;53.10;;;;;;5074860;28;20031;-67
2022/01/28 11:04:18;;;;;;;1.48;0.50;;;19.00;53.10;;;;;;5074846;28;20024;-66
2022/01/28 11:06:44;;;;;;;0.73;0.50;;;19.00;53.10;;;;;;5065833;28;20015;-67
2022/01/28 11:09:10;;;;;;;1.38;0.68;;;19.00;53.10;;;;;;5094945;28;20077;-67
2022/01/28 11:11:36;;;;;;;2.20;0.70;;;19.00;53.00;;;;;;5094964;28;20431;-66
2022/01/28 11:14:02;;;;;;;1.15;0.60;;;19.00;53.00;;;;;;5094529;28;20099;-67
2022/01/28 11:16:28;;;;;;;1.45;0.82;;;19.00;53.10;;;;;;5094679;28;20161;-66
2022/01/28 11:18:55;;;;;;;1.65;0.80;;;19.00;53.00;;;;;;5094885;28;20077;-67
2022/01/28 11:21:42;;;;;;;1.50;0.65;;;19.00;53.00;;;;;;5095011;28;20107;-67
2022/01/28 11:24:18;;;;;;;1.15;0.47;;;19.00;53.00;;;;;;5094617;28;20024;-66
2022/01/28 11:27:26;;;;;;;0.95;0.50;;;19.00;53.10;;;;;;5094905;28;20041;-67
2022/01/28 11:30:17;;;;;;;0.68;0.52;;;19.00;52.90;;;;;;5084789;28;20514;-67
2022/01/28 11:33:06;;;;;;;1.70;0.40;;;19.00;53.00;;;;;;5094682;28;20065;-67
2022/01/28 11:35:38;;;;;;;1.42;0.63;;;19.00;53.10;;;;;;5095546;28;20032;-67
2022/01/28 11:38:41;;;;;;;1.00;0.50;;;19.00;53.10;;;;;;5095704;28;20030;-66
2022/01/28 11:41:07;;;;;;;1.17;0.47;;;19.00;53.00;;;;;;4996867;28;20060;-67
2022/01/28 11:43:34;;;;;;;1.30;0.40;;;18.90;53.10;;;;;;5013291;28;20112;-67
2022/01/28 11:46:10;;;;;;;1.35;0.52;;;18.90;53.20;;;;;;4997008;28;20040;-66
2022/01/28 11:49:04;;;;;;;0.60;0.30;;;19.00;53.10;;;;;;4997187;28;20042;-67
2022/01/28 11:51:33;;;;;;;0.50;0.40;;;19.00;53.00;;;;;;5013286;28;20495;-66
2022/01/28 11:54:00;;;;;;;0.82;0.50;;;18.90;53.00;;;;;;5013148;28;20500;-67
2022/01/28 11:56:26;;;;;;;1.35;0.50;;;18.90;53.00;;;;;;4996578;28;20447;-67
2022/01/28 11:58:59;;;;;;;1.48;0.50;;;19.00;53.10;;;;;;4988888;28;20030;-66
2022/01/28 12:01:39;;;;;;;1.60;0.50;;;18.90;53.00;;;;;;4993437;28;20085;-66
2022/01/28 12:04:24;;;;;;;0.95;0.50;;;19.00;53.00;;;;;;4993454;28;20034;-66
2022/01/28 12:07:03;;;;;;;0.52;0.50;;;19.00;53.00;;;;;;5001659;28;20095;-67
2022/01/28 12:09:29;;;;;;;2.10;0.40;;;19.00;53.00;;;;;;5012419;28;20030;-67
2022/01/28 12:11:55;;;;;;;0.93;0.43;;;18.90;53.00;;;;;;4996378;28;20048;-67
2022/01/28 12:14:49;;;;;;;0.85;0.40;;;19.00;53.10;;;;;;5009173;28;20044;-66
2022/01/28 12:17:34;;;;;;;1.05;0.50;;;19.00;52.90;;;;;;5074615;28;20024;-67
2022/01/28 12:20:09;;;;;;;1.13;0.63;;;19.00;53.00;;;;;;5074587;28;20020;-66
2022/01/28 12:22:34;;;;;;;1.13;0.50;;;19.00;53.00;;;;;;5073579;28;20020;-67
2022/01/28 12:25:00;;;;;;;0.73;0.50;;;19.00;53.10;;;;;;5074261;28;20112;-67
2022/01/28 12:27:34;;;;;;;0.93;0.40;;;18.90;53.00;;;;;;5073038;28;20424;-66
2022/01/28 12:30:02;;;;;;;0.90;0.50;;;19.00;53.10;;;;;;5073175;28;20045;-66
2022/01/28 12:32:28;;;;;;;0.85;0.50;;;18.90;53.00;;;;;;5073127;28;20028;-67
2022/01/28 12:34:53;;;;;;;0.93;0.30;;;18.90;52.90;;;;;;5074297;28;20038;-67
2022/01/28 12:37:22;;;;;;;1.38;0.55;;;19.00;53.00;;;;;;5073140;28;20020;-67
2022/01/28 12:40:02;;;;;;;0.60;0.50;;;19.00;53.00;;;;;;5073902;28;20016;-67
2022/01/28 12:42:32;;;;;;;0.65;0.38;;;19.00;53.00;;;;;;5074241;28;20040;-66
2022/01/28 12:44:58;;;;;;;0.60;0.50;;;19.00;53.00;;;;;;5074257;28;20029;-67
2022/01/28 12:47:25;;;;;;;0.90;0.40;;;19.00;53.00;;;;;;5072912;28;20023;-66
2022/01/28 12:49:55;;;;;;;0.90;0.50;;;19.00;53.00;;;;;;5072806;28;20025;-67
2022/01/28 12:52:21;;;;;;;0.75;0.35;;;19.00;53.00;;;;;;5072753;28;20027;-66
2022/01/28 12:54:46;;;;;;;0.55;0.40;;;19.00;53.00;;;;;;5072495;28;20112;-67
2022/01/28 12:57:17;;;;;;;2.45;0.40;;;19.00;53.00;;;;;;5072589;28;20070;-67
2022/01/28 12:59:45;;;;;;;1.65;0.60;;;19.00;53.00;;;;;;5072419;28;20047;-67
2022/01/28 13:02:11;;;;;;;1.13;0.70;;;19.00;53.00;;;;;;5072655;28;20012;-67
2022/01/28 13:10:16;;;;;;;0.88;0.50;;;19.00;53.00;;;;;;5093495;28;20039;-66
2022/01/28 13:12:42;;;;;;;0.47;0.43;;;18.90;52.90;;;;;;5092774;28;20027;-67
2022/01/28 13:15:09;;;;;;;0.60;0.50;;;19.00;53.00;;;;;;5092603;28;20032;-67
2022/01/28 13:17:35;;;;;;;0.90;0.38;;;19.00;53.00;;;;;;5093606;28;20100;-67
2022/01/28 13:20:03;;;;;;;1.08;0.40;;;19.00;53.00;;;;;;5092068;28;20155;-66
2022/01/28 13:22:30;;;;;;;0.30;0.30;;;18.90;52.90;;;;;;5091937;28;20023;-67
2022/01/28 13:24:56;;;;;;;0.77;0.50;;;18.90;52.90;;;;;;5092087;28;20020;-67
2022/01/28 13:27:23;;;;;;;0.60;0.50;;;19.00;53.00;;;;;;5093296;28;20032;-66
2022/01/28 13:29:51;;;;;;;0.70;0.60;;;19.00;53.00;;;;;;5093338;28;20059;-67
2022/01/28 13:32:26;;;;;;;0.30;0.30;;;19.00;54.00;;;;;;5092250;28;20067;-67
2022/01/28 13:34:55;;;;;;;0.70;0.50;;;19.00;53.00;;;;;;5092311;28;20108;-67
2022/01/28 13:37:40;;;;;;;0.55;0.40;;;19.00;53.00;;;;;;5093310;28;20092;-67
2022/01/28 13:40:19;;;;;;;0.30;0.30;;;19.00;52.80;;;;;;5092351;28;20471;-66
2022/01/28 13:43:09;;;;;;;0.60;0.55;;;19.00;53.00;;;;;;5092365;28;20023;-67
2022/01/28 13:45:40;;;;;;;0.35;0.30;;;19.00;52.80;;;;;;5093148;28;20394;-67
2022/01/28 13:48:07;;;;;;;1.60;0.40;;;19.00;53.00;;;;;;5093163;28;20103;-67
2022/01/28 13:50:37;;;;;;;0.52;0.43;;;19.00;53.00;;;;;;5093231;28;20465;-67
2022/01/28 13:53:34;;;;;;;0.50;0.38;;;19.00;53.00;;;;;;5091501;28;20048;-66
2022/01/28 13:55:59;;;;;;;1.38;0.63;;;19.00;53.00;;;;;;5092099;28;20051;-66
2022/01/28 13:58:25;;;;;;;0.60;0.57;;;18.90;52.90;;;;;;5088330;28;20063;-67
2022/01/28 14:00:51;;;;;;;1.35;0.60;;;19.00;53.00;;;;;;5071586;28;20020;-67
2022/01/28 14:03:24;;;;;;;0.35;0.35;;;19.00;53.00;;;;;;5071353;28;20021;-67
2022/01/28 14:05:54;;;;;;;0.98;0.40;;;18.90;52.90;;;;;;5071477;28;20033;-67
2022/01/28 14:08:41;;;;;;;0.63;0.40;;;19.00;52.90;;;;;;5091176;28;20543;-67
2022/01/28 14:11:20;;;;;;;0.47;0.30;;;19.00;53.80;;;;;;5092790;28;20532;-66
2022/01/28 14:14:17;;;;;;;0.30;0.30;;;19.00;52.90;;;;;;5091502;28;20028;-66
2022/01/28 14:17:03;;;;;;;0.50;0.40;;;19.00;52.90;;;;;;5091816;28;20020;-67
2022/01/28 14:19:30;;;;;;;0.30;0.30;;;19.00;52.90;;;;;;5092354;28;20032;-67
2022/01/28 14:21:56;;;;;;;0.40;0.40;;;18.90;53.00;;;;;;5092492;28;20044;-67
2022/01/28 14:24:35;;;;;;;1.30;0.47;;;18.90;52.90;;;;;;5091459;28;20063;-66
2022/01/28 14:32:15;;;;;;;0.52;0.40;;;18.90;52.90;;;;;;5091391;28;20432;-67